createdAt,value
2023-02-14T00:02:18.433Z,26.53
2023-02-14T00:04:48.228Z,30.70
2023-02-14T00:07:18.849Z,25.60
2023-02-14T00:09:47.808Z,27.37
2023-02-14T00:12:16.815Z,30.23
2023-02-14T00:15:03.689Z,28.20
2023-02-14T00:17:33.501Z,29.47
2023-02-14T00:20:02.808Z,29.50
2023-02-14T00:22:33.577Z,35.40
2023-02-14T00:25:07.383Z,26.07
2023-02-14T00:27:36.823Z,25.03
2023-02-14T00:30:07.141Z,28.10
2023-02-14T00:32:38.537Z,29.10
2023-02-14T00:35:08.620Z,27.50
2023-02-14T00:37:39.221Z,26.60
2023-02-14T00:40:09.371Z,24.17
2023-02-14T00:42:38.666Z,24.07
2023-02-14T00:45:08.409Z,24.20
2023-02-14T00:47:37.670Z,24.67
2023-02-14T00:50:07.506Z,24.50
2023-02-14T00:52:38.034Z,24.17
2023-02-14T00:55:07.472Z,23.57
2023-02-14T00:57:36.572Z,25.23
2023-02-14T01:00:08.107Z,25.03
2023-02-14T01:02:37.274Z,24.50
2023-02-14T01:05:07.164Z,24.07
2023-02-14T01:07:36.152Z,25.80
2023-02-14T01:10:07.978Z,28.80
2023-02-14T01:12:37.065Z,24.20
2023-02-14T01:15:06.572Z,23.47
2023-02-14T01:17:36.498Z,23.93
2023-02-14T01:20:07.046Z,24.53
2023-02-14T01:22:37.189Z,25.17
2023-02-14T01:25:08.514Z,24.97
2023-02-14T01:27:37.680Z,25.07
2023-02-14T01:30:08.018Z,24.77
2023-02-14T01:32:37.324Z,24.90
2023-02-14T01:35:07.955Z,25.03
2023-02-14T01:37:37.588Z,24.40
2023-02-14T01:40:09.996Z,24.57
2023-02-14T01:42:39.139Z,24.07
2023-02-14T01:45:15.753Z,25.00
2023-02-14T01:47:47.471Z,24.23
2023-02-14T01:50:22.697Z,25.57
2023-02-14T01:52:56.330Z,26.03
2023-02-14T01:55:30.100Z,25.67
2023-02-14T01:58:01.657Z,26.30
2023-02-14T02:00:48.216Z,24.67
2023-02-14T02:03:20.248Z,26.20
2023-02-14T02:05:52.624Z,25.10
2023-02-14T02:08:21.678Z,25.60
2023-02-14T02:10:52.084Z,25.73
2023-02-14T02:13:23.790Z,25.30
2023-02-14T02:16:09.579Z,25.10
2023-02-14T02:18:50.026Z,24.53
2023-02-14T02:21:52.449Z,25.10
2023-02-14T02:24:33.831Z,23.77
2023-02-14T02:27:27.166Z,24.80
2023-02-14T02:30:47.743Z,24.47
2023-02-14T02:33:52.501Z,22.97
2023-02-14T02:36:47.670Z,22.87
2023-02-14T02:39:31.009Z,24.40
2023-02-14T02:42:07.648Z,26.13
2023-02-14T02:44:51.033Z,25.77
2023-02-14T02:47:28.591Z,25.97
2023-02-14T02:50:22.087Z,26.03
2023-02-14T02:53:04.131Z,27.23
2023-02-14T02:56:01.761Z,27.53
2023-02-14T02:58:37.754Z,27.23
2023-02-14T03:01:13.629Z,27.23
2023-02-14T03:04:03.581Z,27.43
2023-02-14T03:06:32.585Z,27.47
2023-02-14T03:09:13.547Z,26.43
2023-02-14T03:11:50.142Z,26.80
2023-02-14T03:14:27.561Z,29.47
2023-02-14T03:17:03.667Z,28.07
2023-02-14T03:20:06.345Z,29.30
2023-02-14T03:22:45.421Z,27.57
2023-02-14T03:25:29.419Z,25.47
2023-02-14T03:28:05.202Z,23.83
2023-02-14T03:30:42.714Z,24.87
2023-02-14T03:33:21.776Z,23.50
2023-02-14T03:36:01.956Z,23.03
2023-02-14T03:38:35.712Z,22.57
2023-02-14T03:41:11.446Z,23.63
2023-02-14T03:43:45.217Z,22.87
2023-02-14T03:46:20.873Z,22.00
2023-02-14T03:48:53.466Z,22.47
2023-02-14T03:51:24.443Z,22.60
2023-02-14T03:53:58.006Z,23.13
2023-02-14T03:56:33.912Z,23.07
2023-02-14T03:59:08.184Z,22.17
2023-02-14T04:01:40.398Z,22.13
2023-02-14T04:04:10.842Z,23.40
2023-02-14T04:06:39.942Z,26.90
2023-02-14T04:09:09.019Z,24.77
2023-02-14T04:11:39.435Z,24.33
2023-02-14T04:14:08.456Z,22.90
2023-02-14T04:16:51.341Z,30.20
2023-02-14T04:19:26.066Z,23.43
2023-02-14T04:21:55.039Z,24.03
2023-02-14T04:24:24.054Z,24.57
2023-02-14T04:27:12.329Z,23.70
2023-02-14T04:29:43.338Z,24.97
2023-02-14T04:32:14.665Z,22.93
2023-02-14T04:34:44.480Z,24.97
2023-02-14T04:37:14.006Z,24.73
2023-02-14T04:39:43.015Z,24.83
2023-02-14T04:42:13.411Z,25.27
2023-02-14T04:44:42.450Z,26.83
2023-02-14T04:47:11.387Z,25.47
2023-02-14T04:49:40.246Z,26.83
2023-02-14T04:52:10.228Z,25.57
2023-02-14T04:54:40.036Z,26.00
2023-02-14T04:57:13.351Z,27.70
2023-02-14T04:59:42.264Z,27.13
2023-02-14T05:02:11.307Z,26.53
2023-02-14T05:04:40.609Z,26.07
2023-02-14T05:07:09.626Z,26.43
2023-02-14T05:09:38.724Z,26.97
2023-02-14T05:12:08.128Z,25.73
2023-02-14T05:14:38.481Z,25.57
2023-02-14T05:17:07.383Z,25.30
2023-02-14T05:19:36.344Z,25.00
2023-02-14T05:22:05.346Z,24.90
2023-02-14T05:24:34.521Z,25.70
2023-02-14T05:27:03.729Z,25.30
2023-02-14T05:29:32.692Z,24.83
2023-02-14T05:32:03.147Z,26.23
2023-02-14T05:34:32.167Z,24.47
2023-02-14T05:37:02.423Z,24.03
2023-02-14T05:39:31.280Z,24.20
2023-02-14T05:42:00.214Z,24.27
2023-02-14T05:44:29.200Z,23.07
2023-02-14T05:46:58.305Z,22.70
2023-02-14T05:49:28.821Z,24.20
2023-02-14T05:51:58.131Z,21.00
2023-02-14T05:54:27.470Z,22.27
2023-02-14T05:56:56.686Z,23.03
2023-02-14T05:59:25.901Z,22.47
2023-02-14T06:01:55.420Z,23.63
2023-02-14T06:04:25.234Z,22.50
2023-02-14T06:06:56.662Z,22.30
2023-02-14T06:09:26.556Z,22.63
2023-02-14T06:11:56.171Z,23.43
2023-02-14T06:14:26.337Z,23.10
2023-02-14T06:16:55.934Z,23.97
2023-02-14T06:19:25.054Z,22.47
2023-02-14T06:21:55.789Z,21.77
2023-02-14T06:24:24.869Z,21.60
2023-02-14T06:26:53.919Z,21.03
2023-02-14T06:29:23.037Z,22.27
2023-02-14T06:31:53.080Z,21.00
2023-02-14T06:34:22.223Z,20.57
2023-02-14T06:36:51.443Z,20.90
2023-02-14T06:39:22.223Z,21.80
2023-02-14T06:41:54.433Z,20.87
2023-02-14T06:44:23.637Z,20.80
2023-02-14T06:46:52.714Z,20.50
2023-02-14T06:49:21.711Z,21.57
2023-02-14T06:51:50.861Z,21.13
2023-02-14T06:54:21.399Z,22.07
2023-02-14T06:56:53.288Z,20.97
2023-02-14T06:59:22.587Z,21.63
2023-02-14T07:01:52.143Z,21.30
2023-02-14T07:04:21.208Z,20.40
2023-02-14T07:06:50.258Z,22.57
2023-02-14T07:09:21.567Z,21.50
2023-02-14T07:11:50.591Z,20.87
2023-02-14T07:14:19.753Z,20.63
2023-02-14T07:16:49.121Z,21.30
2023-02-14T07:19:18.188Z,20.23
2023-02-14T07:21:47.208Z,19.90
2023-02-14T07:24:16.238Z,21.93
2023-02-14T07:26:46.906Z,21.50
2023-02-14T07:29:15.865Z,20.73
2023-02-14T07:31:44.999Z,21.63
2023-02-14T07:34:14.088Z,20.60
2023-02-14T07:36:44.086Z,21.40
2023-02-14T07:39:13.110Z,20.23
2023-02-14T07:41:42.144Z,20.43
2023-02-14T07:44:13.993Z,20.43
2023-02-14T07:46:43.016Z,19.00
2023-02-14T07:49:12.495Z,19.30
2023-02-14T07:51:41.438Z,19.50
2023-02-14T07:54:10.726Z,20.07
2023-02-14T07:56:40.528Z,19.97
2023-02-14T07:59:09.663Z,19.40
2023-02-14T08:01:40.363Z,19.70
2023-02-14T08:04:09.860Z,19.70
2023-02-14T08:06:38.658Z,18.73
2023-02-14T08:09:10.206Z,19.57
2023-02-14T08:11:57.215Z,19.57
2023-02-14T08:14:26.011Z,19.30
2023-02-14T08:16:56.461Z,18.53
2023-02-14T08:19:25.603Z,20.20
2023-02-14T08:21:54.610Z,20.23
2023-02-14T08:24:23.517Z,20.07
2023-02-14T08:26:52.773Z,19.47
2023-02-14T08:29:21.917Z,19.47
2023-02-14T08:31:51.432Z,19.43
2023-02-14T08:34:21.834Z,19.37
2023-02-14T08:36:52.068Z,18.93
2023-02-14T08:39:21.049Z,19.00
2023-02-14T08:41:50.168Z,20.10
2023-02-14T08:44:19.368Z,20.40
2023-02-14T08:46:48.752Z,20.17
2023-02-14T08:49:18.268Z,19.97
2023-02-14T08:51:48.988Z,19.33
2023-02-14T08:54:18.069Z,19.63
2023-02-14T08:56:47.451Z,20.00
2023-02-14T08:59:16.559Z,19.83
2023-02-14T09:01:45.595Z,21.27
2023-02-14T09:04:14.892Z,19.87
2023-02-14T09:06:44.205Z,19.67
2023-02-14T09:09:14.585Z,19.30
2023-02-14T09:11:43.654Z,18.80
2023-02-14T09:14:12.707Z,19.77
2023-02-14T09:16:41.841Z,19.53
2023-02-14T09:19:10.804Z,19.30
2023-02-14T09:21:41.439Z,20.07
2023-02-14T09:24:10.782Z,19.30
2023-02-14T09:26:42.168Z,20.57
2023-02-14T09:29:13.183Z,18.87
2023-02-14T09:31:42.334Z,19.70
2023-02-14T09:34:28.646Z,19.87
2023-02-14T09:37:15.158Z,20.30
2023-02-14T09:39:44.270Z,19.83
2023-02-14T09:42:41.289Z,19.33
2023-02-14T09:45:14.157Z,19.60
2023-02-14T09:47:48.326Z,18.77
2023-02-14T09:50:23.544Z,19.97
2023-02-14T09:52:56.484Z,23.03
2023-02-14T09:55:29.793Z,20.30
2023-02-14T09:58:17.469Z,20.20
2023-02-14T10:00:49.891Z,19.43
2023-02-14T10:04:01.029Z,18.43
2023-02-14T10:06:46.434Z,19.00
2023-02-14T10:09:27.735Z,18.93
2023-02-14T10:11:59.847Z,19.87
2023-02-14T10:14:33.763Z,20.40
2023-02-14T10:17:08.017Z,19.77
2023-02-14T10:19:41.038Z,19.30
2023-02-14T10:22:15.560Z,18.97
2023-02-14T10:24:48.741Z,19.80
2023-02-14T10:27:31.911Z,19.73
2023-02-14T10:30:03.664Z,18.63
2023-02-14T10:32:40.324Z,28.53
2023-02-14T10:35:20.927Z,21.00
2023-02-14T10:38:00.567Z,18.40
2023-02-14T10:40:45.167Z,20.03
2023-02-14T10:43:24.491Z,18.17
2023-02-14T10:46:03.599Z,17.47
2023-02-14T10:48:45.106Z,17.97
2023-02-14T10:51:17.856Z,16.83
2023-02-14T10:53:54.209Z,17.60
2023-02-14T10:56:32.670Z,18.77
2023-02-14T10:59:08.665Z,17.37
2023-02-14T11:01:39.144Z,18.43
2023-02-14T11:04:11.546Z,18.57
2023-02-14T11:06:40.622Z,17.50
2023-02-14T11:09:12.089Z,17.13
2023-02-14T11:11:45.441Z,17.70
2023-02-14T11:14:24.390Z,18.23
2023-02-14T11:16:55.511Z,17.77
2023-02-14T11:19:27.991Z,18.47
2023-02-14T11:21:59.285Z,19.17
2023-02-14T11:24:32.889Z,18.30
2023-02-14T11:27:04.402Z,18.47
2023-02-14T11:29:42.936Z,19.30
2023-02-14T11:32:16.469Z,19.60
2023-02-14T11:34:48.845Z,18.07
2023-02-14T11:37:26.851Z,17.47
2023-02-14T11:39:57.877Z,17.23
2023-02-14T11:42:36.651Z,17.97
2023-02-14T11:45:07.317Z,18.30
2023-02-14T11:47:41.477Z,17.60
2023-02-14T11:50:23.637Z,18.57
2023-02-14T11:52:55.198Z,18.67
2023-02-14T11:55:29.329Z,17.90
2023-02-14T11:57:59.328Z,18.17
2023-02-14T12:00:31.257Z,17.77
2023-02-14T12:03:05.582Z,18.93
2023-02-14T12:05:38.068Z,17.17
2023-02-14T12:08:09.019Z,18.87
2023-02-14T12:10:39.837Z,18.00
2023-02-14T12:13:25.327Z,17.67
2023-02-14T12:15:55.807Z,17.53
2023-02-14T12:18:47.162Z,18.23
2023-02-14T12:21:54.940Z,17.97
2023-02-14T12:24:38.215Z,17.97
2023-02-14T12:27:20.935Z,17.90
2023-02-14T12:29:53.904Z,17.80
2023-02-14T12:32:25.859Z,18.10
2023-02-14T12:35:03.151Z,17.93
2023-02-14T12:37:41.613Z,17.67
2023-02-14T12:40:18.284Z,17.57
2023-02-14T12:43:11.959Z,18.50
2023-02-14T12:46:04.353Z,18.50
2023-02-14T12:48:48.734Z,18.23
2023-02-14T12:51:26.602Z,18.60
2023-02-14T12:54:08.714Z,17.83
2023-02-14T12:56:50.150Z,16.47
2023-02-14T12:59:30.133Z,16.63
2023-02-14T13:02:29.335Z,16.63
2023-02-14T13:05:02.757Z,17.93
2023-02-14T13:07:47.806Z,17.43
2023-02-14T13:10:26.388Z,17.03
2023-02-14T13:13:05.281Z,17.03
2023-02-14T13:15:43.529Z,17.33
2023-02-14T13:18:24.107Z,17.63
2023-02-14T13:20:57.988Z,17.17
2023-02-14T13:23:33.054Z,17.27
2023-02-14T13:26:06.631Z,15.97
2023-02-14T13:28:38.767Z,19.83
2023-02-14T13:31:08.113Z,16.07
2023-02-14T13:33:41.387Z,16.33
2023-02-14T13:36:13.484Z,16.90
2023-02-14T13:38:47.008Z,16.47
2023-02-14T13:41:17.414Z,16.03
2023-02-14T13:43:48.068Z,16.60
2023-02-14T13:46:19.463Z,16.47
2023-02-14T13:49:01.300Z,16.93
2023-02-14T13:51:46.826Z,16.53
2023-02-14T13:54:31.518Z,16.03
2023-02-14T13:57:02.723Z,15.63
2023-02-14T13:59:33.856Z,16.47
2023-02-14T14:02:31.718Z,16.07
2023-02-14T14:05:00.898Z,15.57
2023-02-14T14:07:33.353Z,15.53
2023-02-14T14:10:07.265Z,15.97
2023-02-14T14:12:41.351Z,16.37
2023-02-14T14:15:14.122Z,15.03
2023-02-14T14:17:45.985Z,15.93
2023-02-14T14:20:43.499Z,15.90
2023-02-14T14:23:32.570Z,15.57
2023-02-14T14:26:03.567Z,15.20
2023-02-14T14:28:34.238Z,14.40
2023-02-14T14:31:03.337Z,14.93
2023-02-14T14:33:34.029Z,16.07
2023-02-14T14:36:07.998Z,16.90
2023-02-14T14:38:48.372Z,16.63
2023-02-14T14:41:19.280Z,15.37
2023-02-14T14:43:48.989Z,16.00
2023-02-14T14:46:18.578Z,15.23
2023-02-14T14:48:50.150Z,15.33
2023-02-14T14:51:25.724Z,16.10
2023-02-14T14:53:58.363Z,15.13
2023-02-14T14:56:31.987Z,15.33
2023-02-14T14:59:18.207Z,16.27
2023-02-14T15:01:47.934Z,14.43
2023-02-14T15:04:19.094Z,14.70
2023-02-14T15:06:49.809Z,16.43
2023-02-14T15:09:24.102Z,14.90
2023-02-14T15:12:26.958Z,14.63
2023-02-14T15:14:56.753Z,16.73
2023-02-14T15:17:28.754Z,15.47
2023-02-14T15:20:01.516Z,16.63
2023-02-14T15:22:36.706Z,16.30
2023-02-14T15:25:10.789Z,15.33
2023-02-14T15:27:43.523Z,15.97
2023-02-14T15:30:25.864Z,15.13
2023-02-14T15:32:55.249Z,15.47
2023-02-14T15:35:27.462Z,15.93
2023-02-14T15:38:01.369Z,14.90
2023-02-14T15:40:33.490Z,16.00
2023-02-14T15:43:15.850Z,15.37
2023-02-14T15:45:46.276Z,14.93
2023-02-14T15:48:18.559Z,14.90
2023-02-14T15:50:51.312Z,15.40
2023-02-14T15:53:37.920Z,14.60
2023-02-14T15:56:10.070Z,14.70
2023-02-14T15:58:41.575Z,15.20
2023-02-14T16:01:10.935Z,15.00
2023-02-14T16:03:45.565Z,14.07
2023-02-14T16:06:30.581Z,14.47
2023-02-14T16:08:59.832Z,16.20
2023-02-14T16:11:30.997Z,16.00
2023-02-14T16:14:21.620Z,16.67
2023-02-14T16:17:04.695Z,16.43
2023-02-14T16:19:36.276Z,16.40
2023-02-14T16:22:07.101Z,15.80
2023-02-14T16:24:37.841Z,15.83
2023-02-14T16:27:07.939Z,15.80
2023-02-14T16:29:39.313Z,16.47
2023-02-14T16:32:16.993Z,15.73
2023-02-14T16:34:48.263Z,16.57
2023-02-14T16:37:27.978Z,15.80
2023-02-14T16:39:57.697Z,16.20
2023-02-14T16:42:26.897Z,17.07
2023-02-14T16:44:57.424Z,18.27
2023-02-14T16:47:27.727Z,15.13
2023-02-14T16:50:00.021Z,16.20
2023-02-14T16:52:29.942Z,17.23
2023-02-14T16:54:58.974Z,17.30
2023-02-14T16:57:31.986Z,16.80
2023-02-14T17:00:02.486Z,16.07
2023-02-14T17:02:31.522Z,16.20
2023-02-14T17:05:00.546Z,16.23
2023-02-14T17:07:32.169Z,17.10
2023-02-14T17:10:04.630Z,16.90
2023-02-14T17:12:39.008Z,17.53
2023-02-14T17:15:13.952Z,15.87
2023-02-14T17:17:43.925Z,16.33
2023-02-14T17:20:14.438Z,16.83
2023-02-14T17:22:44.630Z,17.00
2023-02-14T17:25:14.141Z,17.63
2023-02-14T17:27:44.546Z,16.40
2023-02-14T17:30:16.908Z,16.27
2023-02-14T17:32:46.103Z,15.63
2023-02-14T17:35:15.316Z,16.50
2023-02-14T17:37:44.665Z,16.43
2023-02-14T17:40:14.714Z,16.27
2023-02-14T17:42:45.852Z,17.00
2023-02-14T17:45:18.101Z,18.23
2023-02-14T17:47:47.717Z,17.00
2023-02-14T17:50:18.061Z,16.53
2023-02-14T17:52:47.096Z,15.47
2023-02-14T17:55:18.730Z,17.60
2023-02-14T17:57:52.240Z,17.30
2023-02-14T18:00:23.897Z,16.97
2023-02-14T18:02:52.817Z,16.77
2023-02-14T18:05:21.789Z,16.50
2023-02-14T18:07:52.693Z,16.47
2023-02-14T18:10:21.945Z,14.80
2023-02-14T18:12:50.981Z,16.00
2023-02-14T18:15:20.796Z,15.47
2023-02-14T18:17:51.773Z,15.80
2023-02-14T18:20:21.442Z,16.60
2023-02-14T18:22:50.346Z,16.13
2023-02-14T18:25:19.583Z,15.83
2023-02-14T18:27:48.705Z,17.07
2023-02-14T18:30:18.061Z,18.47
2023-02-14T18:32:47.828Z,17.13
2023-02-14T18:35:18.534Z,16.53
2023-02-14T18:37:47.561Z,16.70
2023-02-14T18:40:20.152Z,17.40
2023-02-14T18:42:49.232Z,17.63
2023-02-14T18:45:18.595Z,18.57
2023-02-14T18:47:47.834Z,17.13
2023-02-14T18:50:21.059Z,17.13
2023-02-14T18:52:50.200Z,16.13
2023-02-14T18:55:19.553Z,16.83
2023-02-14T18:57:48.515Z,17.10
2023-02-14T19:00:18.063Z,17.13
2023-02-14T19:02:47.199Z,16.13
2023-02-14T19:05:16.368Z,17.17
2023-02-14T19:07:47.158Z,16.23
2023-02-14T19:10:16.361Z,16.37
2023-02-14T19:12:46.958Z,17.03
2023-02-14T19:15:16.360Z,16.43
2023-02-14T19:17:45.890Z,18.07
2023-02-14T19:20:16.372Z,17.50
2023-02-14T19:22:48.407Z,17.63
2023-02-14T19:25:17.584Z,17.80
2023-02-14T19:27:46.585Z,16.80
2023-02-14T19:30:16.023Z,17.80
2023-02-14T19:32:45.065Z,17.63
2023-02-14T19:35:14.514Z,17.70
2023-02-14T19:37:43.477Z,16.60
2023-02-14T19:40:14.337Z,16.13
2023-02-14T19:42:43.413Z,16.47
2023-02-14T19:45:12.718Z,17.33
2023-02-14T19:47:47.057Z,15.53
2023-02-14T19:50:17.601Z,16.60
2023-02-14T19:52:46.608Z,16.53
2023-02-14T19:55:23.451Z,17.30
2023-02-14T19:57:52.488Z,16.60
2023-02-14T20:00:21.629Z,17.70
2023-02-14T20:02:50.613Z,15.80
2023-02-14T20:05:20.759Z,16.57
2023-02-14T20:07:52.024Z,16.37
2023-02-14T20:10:22.692Z,16.03
2023-02-14T20:12:51.950Z,17.27
2023-02-14T20:15:21.089Z,16.67
2023-02-14T20:17:50.014Z,16.07
2023-02-14T20:20:19.328Z,15.10
2023-02-14T20:22:48.244Z,16.00
2023-02-14T20:25:17.294Z,16.70
2023-02-14T20:27:47.586Z,17.40
2023-02-14T20:30:20.775Z,17.10
2023-02-14T20:32:52.192Z,18.07
2023-02-14T20:35:21.642Z,16.40
2023-02-14T20:37:52.389Z,17.63
2023-02-14T20:40:21.488Z,17.67
2023-02-14T20:42:52.172Z,18.17
2023-02-14T20:45:21.117Z,18.33
2023-02-14T20:47:50.029Z,18.77
2023-02-14T20:50:19.378Z,19.27
2023-02-14T20:52:48.358Z,18.27
2023-02-14T20:55:17.757Z,18.53
2023-02-14T20:57:46.609Z,18.73
2023-02-14T21:00:17.456Z,18.33
2023-02-14T21:02:46.384Z,18.23
2023-02-14T21:05:18.384Z,19.07
2023-02-14T21:07:47.541Z,19.03
2023-02-14T21:10:17.085Z,17.73
2023-02-14T21:12:46.055Z,18.63
2023-02-14T21:15:16.618Z,18.27
2023-02-14T21:17:45.805Z,18.20
2023-02-14T21:20:15.294Z,17.93
2023-02-14T21:22:44.233Z,18.47
2023-02-14T21:25:13.204Z,17.83
2023-02-14T21:27:42.340Z,19.10
2023-02-14T21:30:12.301Z,18.87
2023-02-14T21:32:42.763Z,18.50
2023-02-14T21:35:11.718Z,18.77
2023-02-14T21:37:40.653Z,17.70
2023-02-14T21:40:10.770Z,18.00
2023-02-14T21:42:39.885Z,18.33
2023-02-14T21:45:28.591Z,18.70
2023-02-14T21:48:17.076Z,18.63
2023-02-14T21:50:46.173Z,17.93
2023-02-14T21:53:15.485Z,18.33
2023-02-14T21:55:46.048Z,17.80
2023-02-14T21:58:15.388Z,18.30
2023-02-14T22:00:46.460Z,17.83
2023-02-14T22:03:16.913Z,17.77
2023-02-14T22:05:45.872Z,17.27
2023-02-14T22:08:14.954Z,17.33
2023-02-14T22:10:44.016Z,17.90
2023-02-14T22:13:12.915Z,18.10
2023-02-14T22:15:41.979Z,18.47
2023-02-14T22:18:10.907Z,17.93
2023-02-14T22:20:41.296Z,19.00
2023-02-14T22:23:11.840Z,17.87
2023-02-14T22:25:40.798Z,18.33
2023-02-14T22:28:10.185Z,18.43
2023-02-14T22:30:41.101Z,18.93
2023-02-14T22:33:10.215Z,19.57
2023-02-14T22:35:39.279Z,19.17
2023-02-14T22:38:11.440Z,20.00
2023-02-14T22:40:43.233Z,18.60
2023-02-14T22:43:12.437Z,17.97
2023-02-14T22:45:41.750Z,17.97
2023-02-14T22:48:10.897Z,18.83
2023-02-14T22:50:40.435Z,17.20
2023-02-14T22:53:10.699Z,17.50
2023-02-14T22:55:39.950Z,16.63
2023-02-14T22:58:09.174Z,17.43
2023-02-14T23:00:38.149Z,15.70
2023-02-14T23:03:07.350Z,17.67
2023-02-14T23:05:36.379Z,18.37
2023-02-14T23:08:05.674Z,18.57
2023-02-14T23:10:36.605Z,18.23
2023-02-14T23:13:23.018Z,18.57
2023-02-14T23:16:11.660Z,17.50
2023-02-14T23:18:58.402Z,17.77
2023-02-14T23:21:44.859Z,17.57
2023-02-14T23:24:14.006Z,18.43
2023-02-14T23:26:44.302Z,17.57
2023-02-14T23:29:13.336Z,18.13
2023-02-14T23:31:42.385Z,18.33
2023-02-14T23:34:11.642Z,17.63
2023-02-14T23:36:40.834Z,16.73
2023-02-14T23:39:09.944Z,18.10
2023-02-14T23:41:48.335Z,17.87
2023-02-14T23:44:20.720Z,18.07
2023-02-14T23:46:51.877Z,18.03
2023-02-14T23:49:21.320Z,18.13
2023-02-14T23:51:51.449Z,18.27
2023-02-14T23:54:21.373Z,18.87
2023-02-14T23:56:51.040Z,18.53
2023-02-14T23:59:22.525Z,18.97
